createdAt,value
2023-09-03T00:02:24.508Z,98865.84
2023-09-03T00:04:51.507Z,98868.94
2023-09-03T00:07:18.540Z,98866.00
2023-09-03T00:09:45.542Z,98864.72
2023-09-03T00:12:13.000Z,98863.00
2023-09-03T00:14:39.972Z,98872.22
2023-09-03T00:17:07.002Z,98875.03
2023-09-03T00:19:34.229Z,98871.59
2023-09-03T00:22:02.890Z,98883.34
2023-09-03T00:24:34.198Z,98879.09
2023-09-03T00:27:01.439Z,98888.91
2023-09-03T00:29:28.671Z,98887.47
2023-09-03T00:31:56.861Z,98879.84
2023-09-03T00:34:23.844Z,98886.91
2023-09-03T00:36:50.898Z,98892.72
2023-09-03T00:39:20.128Z,98883.00
2023-09-03T00:41:47.505Z,98891.53
2023-09-03T00:44:15.433Z,98886.44
2023-09-03T00:46:43.980Z,98879.91
2023-09-03T00:49:13.494Z,98886.88
2023-09-03T00:51:41.000Z,98887.28
2023-09-03T00:54:09.453Z,98880.91
2023-09-03T00:56:36.946Z,98881.81
2023-09-03T00:59:04.121Z,98875.09
2023-09-03T01:01:31.816Z,98878.78
2023-09-03T01:03:59.022Z,98880.16
2023-09-03T01:06:26.453Z,98891.69
2023-09-03T01:08:53.953Z,98892.41
2023-09-03T01:11:48.281Z,98893.66
2023-09-03T01:14:38.119Z,98905.09
2023-09-03T01:17:36.214Z,98904.97
2023-09-03T01:20:31.390Z,98901.25
2023-09-03T01:23:10.326Z,98900.56
2023-09-03T01:26:00.327Z,98906.56
2023-09-03T01:28:39.964Z,98907.69
2023-09-03T01:31:17.450Z,98909.69
2023-09-03T01:33:46.925Z,98913.41
2023-09-03T01:36:15.116Z,98915.84
2023-09-03T01:38:42.388Z,98915.94
2023-09-03T01:41:10.253Z,98919.13
2023-09-03T01:43:37.466Z,98920.38
2023-09-03T01:46:10.532Z,98923.78
2023-09-03T01:48:56.704Z,98920.78
2023-09-03T01:51:53.626Z,98915.78
2023-09-03T01:54:32.263Z,98915.34
2023-09-03T01:57:06.930Z,98926.72
2023-09-03T01:59:44.682Z,98922.78
2023-09-03T02:02:13.595Z,98934.84
2023-09-03T02:04:40.992Z,98932.81
2023-09-03T02:07:08.164Z,98939.38
2023-09-03T02:09:35.714Z,98930.88
2023-09-03T02:12:03.749Z,98937.91
2023-09-03T02:14:30.738Z,98925.78
2023-09-03T02:16:57.879Z,98926.84
2023-09-03T02:19:25.219Z,98933.97
2023-09-03T02:21:52.799Z,98927.44
2023-09-03T02:24:20.112Z,98932.00
2023-09-03T02:26:48.256Z,98933.84
2023-09-03T02:29:15.657Z,98926.44
2023-09-03T02:31:42.749Z,98926.94
2023-09-03T02:34:15.151Z,98925.41
2023-09-03T02:36:42.333Z,98923.72
2023-09-03T02:39:10.138Z,98931.19
2023-09-03T02:41:37.237Z,98937.66
2023-09-03T02:44:04.408Z,98942.78
2023-09-03T02:46:31.663Z,98945.47
2023-09-03T02:49:00.043Z,98948.66
2023-09-03T02:51:27.144Z,98943.50
2023-09-03T02:53:56.105Z,98940.81
2023-09-03T02:56:24.094Z,98948.66
2023-09-03T02:58:52.158Z,98950.53
2023-09-03T03:01:21.632Z,98956.41
2023-09-03T03:03:49.532Z,98956.09
2023-09-03T03:06:17.402Z,98957.00
2023-09-03T03:08:45.059Z,98954.03
2023-09-03T03:11:18.518Z,98958.84
2023-09-03T03:14:03.513Z,98948.91
2023-09-03T03:16:34.504Z,98951.59
2023-09-03T03:19:06.327Z,98955.81
2023-09-03T03:21:34.993Z,98961.13
2023-09-03T03:24:07.017Z,98958.91
2023-09-03T03:26:39.400Z,98963.38
2023-09-03T03:29:10.711Z,98966.78
2023-09-03T03:31:44.226Z,98974.97
2023-09-03T03:34:12.740Z,98967.91
2023-09-03T03:36:41.275Z,98980.66
2023-09-03T03:39:08.225Z,98981.66
2023-09-03T03:41:37.678Z,98990.38
2023-09-03T03:44:05.829Z,98985.56
2023-09-03T03:46:32.825Z,98978.88
2023-09-03T03:49:01.097Z,98974.47
2023-09-03T03:51:28.399Z,98973.06
2023-09-03T03:53:56.503Z,98977.06
2023-09-03T03:56:23.596Z,98978.38
2023-09-03T03:58:51.119Z,98976.78
2023-09-03T04:01:24.581Z,98984.50
2023-09-03T04:03:55.908Z,98990.25
2023-09-03T04:06:23.603Z,98993.19
2023-09-03T04:08:50.604Z,98994.47
2023-09-03T04:11:21.721Z,99000.66
2023-09-03T04:13:48.857Z,99000.91
2023-09-03T04:16:18.973Z,99004.66
2023-09-03T04:18:50.207Z,99007.56
2023-09-03T04:21:17.847Z,99002.28
2023-09-03T04:23:45.271Z,99014.72
2023-09-03T04:26:12.458Z,99004.97
2023-09-03T04:28:44.663Z,99009.88
2023-09-03T04:31:13.237Z,99004.66
2023-09-03T04:33:41.660Z,99009.78
2023-09-03T04:36:11.321Z,99015.25
2023-09-03T04:38:38.567Z,99004.06
2023-09-03T04:41:06.845Z,99004.28
2023-09-03T04:43:48.288Z,99002.06
2023-09-03T04:46:20.071Z,99003.47
2023-09-03T04:48:47.265Z,99017.38
2023-09-03T04:51:14.641Z,99021.22
2023-09-03T04:53:42.493Z,99025.69
2023-09-03T04:56:13.696Z,99020.94
2023-09-03T04:58:42.404Z,99030.81
2023-09-03T05:01:17.156Z,99034.59
2023-09-03T05:03:47.016Z,99048.25
2023-09-03T05:06:17.349Z,99054.34
2023-09-03T05:08:46.672Z,99059.25
2023-09-03T05:11:16.180Z,99073.13
2023-09-03T05:13:45.153Z,99076.94
2023-09-03T05:16:13.446Z,99078.59
2023-09-03T05:18:42.665Z,99085.59
2023-09-03T05:21:11.206Z,99082.16
2023-09-03T05:23:39.132Z,99084.38
2023-09-03T05:26:06.979Z,99080.28
2023-09-03T05:28:36.579Z,99086.41
2023-09-03T05:31:03.712Z,99086.31
2023-09-03T05:33:32.102Z,99080.03
2023-09-03T05:35:59.471Z,99076.63
2023-09-03T05:38:26.604Z,99079.31
2023-09-03T05:40:54.207Z,99071.25
2023-09-03T05:43:24.230Z,99069.38
2023-09-03T05:45:54.266Z,99065.63
2023-09-03T05:48:21.748Z,99056.31
2023-09-03T05:50:49.149Z,99065.38
2023-09-03T05:53:16.854Z,99057.53
2023-09-03T05:55:43.933Z,99064.16
2023-09-03T05:58:11.013Z,99059.38
2023-09-03T06:00:44.217Z,99066.09
2023-09-03T06:03:12.199Z,99070.25
2023-09-03T06:05:39.373Z,99076.56
2023-09-03T06:08:07.553Z,99077.34
2023-09-03T06:10:37.810Z,99084.22
2023-09-03T06:13:05.065Z,99080.72
2023-09-03T06:15:32.131Z,99082.94
2023-09-03T06:18:00.775Z,99089.50
2023-09-03T06:20:27.880Z,99088.69
2023-09-03T06:22:54.871Z,99096.16
2023-09-03T06:25:21.924Z,99104.84
2023-09-03T06:27:48.891Z,99101.56
2023-09-03T06:30:15.864Z,99102.44
2023-09-03T06:32:43.313Z,99103.41
2023-09-03T06:35:10.335Z,99110.16
2023-09-03T06:37:37.342Z,99104.78
2023-09-03T06:40:04.835Z,99103.88
2023-09-03T06:42:31.896Z,99112.66
2023-09-03T06:44:58.911Z,99117.34
2023-09-03T06:47:26.057Z,99122.81
2023-09-03T06:49:53.405Z,99125.97
2023-09-03T06:52:21.013Z,99124.22
2023-09-03T06:54:48.497Z,99133.69
2023-09-03T06:57:28.364Z,99133.66
2023-09-03T06:59:56.997Z,99130.44
2023-09-03T07:02:25.147Z,99139.41
2023-09-03T07:04:52.730Z,99142.97
2023-09-03T07:07:19.760Z,99143.34
2023-09-03T07:09:46.846Z,99137.34
2023-09-03T07:12:14.290Z,99140.81
2023-09-03T07:14:41.297Z,99146.22
2023-09-03T07:17:08.269Z,99150.13
2023-09-03T07:19:35.263Z,99153.72
2023-09-03T07:22:02.323Z,99160.69
2023-09-03T07:24:29.292Z,99162.50
2023-09-03T07:26:56.343Z,99168.75
2023-09-03T07:29:23.353Z,99170.50
2023-09-03T07:31:50.396Z,99163.81
2023-09-03T07:34:17.719Z,99174.97
2023-09-03T07:36:44.716Z,99169.63
2023-09-03T07:39:11.898Z,99176.25
2023-09-03T07:41:39.930Z,99169.47
2023-09-03T07:44:08.459Z,99176.16
2023-09-03T07:46:35.937Z,99177.75
2023-09-03T07:49:03.052Z,99175.69
2023-09-03T07:51:30.407Z,99178.34
2023-09-03T07:53:57.641Z,99179.91
2023-09-03T07:56:24.801Z,99179.63
2023-09-03T07:58:51.788Z,99183.03
2023-09-03T08:01:20.686Z,99187.72
2023-09-03T08:03:48.162Z,99184.38
2023-09-03T08:06:15.379Z,99195.41
2023-09-03T08:08:42.583Z,99186.31
2023-09-03T08:11:09.539Z,99194.03
2023-09-03T08:13:37.128Z,99198.19
2023-09-03T08:16:04.396Z,99206.38
2023-09-03T08:18:31.542Z,99198.28
2023-09-03T08:20:59.187Z,99189.53
2023-09-03T08:23:26.418Z,99194.75
2023-09-03T08:25:53.402Z,99196.94
2023-09-03T08:28:20.373Z,99197.44
2023-09-03T08:30:48.413Z,99205.78
2023-09-03T08:33:15.551Z,99202.72
2023-09-03T08:35:42.696Z,99204.19
2023-09-03T08:38:10.301Z,99204.03
2023-09-03T08:40:37.888Z,99207.81
2023-09-03T08:43:08.266Z,99203.81
2023-09-03T08:45:42.968Z,99206.16
2023-09-03T08:48:11.226Z,99212.16
2023-09-03T08:50:38.355Z,99217.63
2023-09-03T08:53:05.538Z,99215.13
2023-09-03T08:55:33.898Z,99224.59
2023-09-03T08:58:02.488Z,99221.63
2023-09-03T09:00:30.009Z,99217.38
2023-09-03T09:03:01.665Z,99214.16
2023-09-03T09:05:28.949Z,99213.97
2023-09-03T09:07:56.516Z,99221.03
2023-09-03T09:10:29.629Z,99213.31
2023-09-03T09:13:05.469Z,99214.31
2023-09-03T09:15:32.693Z,99215.88
2023-09-03T09:18:00.266Z,99223.44
2023-09-03T09:20:27.336Z,99221.94
2023-09-03T09:22:54.321Z,99216.69
2023-09-03T09:25:28.219Z,99225.88
2023-09-03T09:27:57.539Z,99233.38
2023-09-03T09:30:26.677Z,99231.53
2023-09-03T09:33:08.611Z,99233.72
2023-09-03T09:35:36.347Z,99236.66
2023-09-03T09:38:09.018Z,99240.56
2023-09-03T09:40:37.618Z,99234.00
2023-09-03T09:43:08.621Z,99236.88
2023-09-03T09:45:51.723Z,99229.13
2023-09-03T09:48:19.383Z,99222.25
2023-09-03T09:50:48.967Z,99224.91
2023-09-03T09:53:28.839Z,99215.94
2023-09-03T09:56:10.901Z,99224.28
2023-09-03T09:58:42.265Z,99230.25
2023-09-03T10:01:10.391Z,99232.72
2023-09-03T10:03:46.723Z,99234.56
2023-09-03T10:06:19.291Z,99232.75
2023-09-03T10:08:50.749Z,99224.91
2023-09-03T10:11:20.441Z,99224.28
2023-09-03T10:13:49.543Z,99214.25
2023-09-03T10:16:21.002Z,99218.34
2023-09-03T10:18:49.902Z,99221.00
2023-09-03T10:21:36.842Z,99222.22
2023-09-03T10:24:14.752Z,99212.91
2023-09-03T10:26:50.496Z,99211.00
2023-09-03T10:29:21.194Z,99201.59
2023-09-03T10:31:51.278Z,99219.81
2023-09-03T10:34:18.545Z,99214.66
2023-09-03T10:37:05.684Z,99215.13
2023-09-03T10:39:36.950Z,99210.41
2023-09-03T10:42:18.732Z,99205.38
2023-09-03T10:45:01.041Z,99205.34
2023-09-03T10:47:28.864Z,99203.00
2023-09-03T10:49:56.744Z,99207.91
2023-09-03T10:52:31.926Z,99203.78
2023-09-03T10:55:20.379Z,99206.56
2023-09-03T10:58:17.212Z,99210.81
2023-09-03T11:01:23.997Z,99208.59
2023-09-03T11:03:55.927Z,99204.66
2023-09-03T11:06:25.053Z,99206.22
2023-09-03T11:09:07.759Z,99201.53
2023-09-03T11:11:36.426Z,99203.47
2023-09-03T11:14:04.212Z,99210.44
2023-09-03T11:16:37.226Z,99219.13
2023-09-03T11:19:08.370Z,99224.03
2023-09-03T11:21:37.192Z,99214.19
2023-09-03T11:24:07.025Z,99209.59
2023-09-03T11:26:35.385Z,99206.47
2023-09-03T11:29:03.877Z,99211.56
2023-09-03T11:31:31.596Z,99208.59
2023-09-03T11:33:59.231Z,99213.75
2023-09-03T11:36:26.682Z,99216.09
2023-09-03T11:38:56.411Z,99216.16
2023-09-03T11:41:23.763Z,99206.06
2023-09-03T11:43:50.949Z,99207.25
2023-09-03T11:46:19.391Z,99194.28
2023-09-03T11:48:57.196Z,99197.69
2023-09-03T11:51:28.756Z,99204.19
2023-09-03T11:53:57.846Z,99200.16
2023-09-03T11:56:26.926Z,99200.38
2023-09-03T11:58:59.067Z,99197.56
2023-09-03T12:01:26.368Z,99199.88
2023-09-03T12:03:54.023Z,99193.72
2023-09-03T12:06:22.141Z,99204.44
2023-09-03T12:08:49.614Z,99197.50
2023-09-03T12:11:16.614Z,99202.13
2023-09-03T12:13:45.466Z,99208.16
2023-09-03T12:16:17.450Z,99207.16
2023-09-03T12:19:00.239Z,99212.59
2023-09-03T12:21:37.899Z,99200.97
2023-09-03T12:24:09.095Z,99203.25
2023-09-03T12:26:38.095Z,99209.81
2023-09-03T12:29:19.782Z,99197.19
2023-09-03T12:31:46.894Z,99191.31
2023-09-03T12:34:18.975Z,99199.44
2023-09-03T12:36:58.006Z,99191.22
2023-09-03T12:39:32.548Z,99183.78
2023-09-03T12:42:00.841Z,99186.31
2023-09-03T12:44:28.197Z,99186.16
2023-09-03T12:46:56.390Z,99189.69
2023-09-03T12:49:23.782Z,99183.13
2023-09-03T12:51:50.882Z,99185.31
2023-09-03T12:54:17.888Z,99181.63
2023-09-03T12:56:45.051Z,99189.25
2023-09-03T12:59:12.110Z,99201.75
2023-09-03T13:01:40.978Z,99193.19
2023-09-03T13:04:15.536Z,99182.66
2023-09-03T13:06:43.145Z,99187.44
2023-09-03T13:09:11.297Z,99179.59
2023-09-03T13:11:38.809Z,99181.75
2023-09-03T13:14:06.420Z,99187.16
2023-09-03T13:16:34.247Z,99183.78
2023-09-03T13:19:01.861Z,99191.63
2023-09-03T13:21:29.149Z,99186.78
2023-09-03T13:23:56.294Z,99198.41
2023-09-03T13:26:23.238Z,99190.19
2023-09-03T13:28:50.230Z,99194.69
2023-09-03T13:31:22.636Z,99193.28
2023-09-03T13:33:49.745Z,99189.22
2023-09-03T13:36:18.332Z,99185.69
2023-09-03T13:38:46.376Z,99179.50
2023-09-03T13:41:13.490Z,99176.28
2023-09-03T13:43:43.164Z,99185.78
2023-09-03T13:46:10.464Z,99194.81
2023-09-03T13:48:37.877Z,99181.47
2023-09-03T13:51:12.519Z,99178.22
2023-09-03T13:53:40.454Z,99191.53
2023-09-03T13:56:08.476Z,99183.66
2023-09-03T13:58:36.287Z,99195.78
2023-09-03T14:01:10.476Z,99184.56
2023-09-03T14:03:38.487Z,99177.94
2023-09-03T14:06:09.107Z,99185.56
2023-09-03T14:08:37.521Z,99175.00
2023-09-03T14:11:04.732Z,99175.25
2023-09-03T14:13:32.420Z,99163.31
2023-09-03T14:16:00.224Z,99162.06
2023-09-03T14:18:28.884Z,99165.75
2023-09-03T14:20:56.186Z,99174.69
2023-09-03T14:23:24.914Z,99184.59
2023-09-03T14:25:52.355Z,99184.88
2023-09-03T14:28:19.486Z,99179.56
2023-09-03T14:30:47.078Z,99181.03
2023-09-03T14:33:14.081Z,99193.28
2023-09-03T14:35:41.122Z,99182.25
2023-09-03T14:38:09.001Z,99184.19
2023-09-03T14:40:36.728Z,99180.88
2023-09-03T14:43:04.130Z,99180.63
2023-09-03T14:45:32.140Z,99177.69
2023-09-03T14:47:59.680Z,99185.25
2023-09-03T14:50:26.659Z,99176.88
2023-09-03T14:52:53.648Z,99172.91
2023-09-03T14:55:23.903Z,99177.50
2023-09-03T14:57:53.881Z,99168.41
2023-09-03T15:00:21.401Z,99169.00
2023-09-03T15:02:48.407Z,99168.59
2023-09-03T15:05:15.506Z,99165.25
2023-09-03T15:07:42.490Z,99173.16
2023-09-03T15:10:09.830Z,99176.94
2023-09-03T15:12:36.845Z,99172.03
2023-09-03T15:15:05.188Z,99174.13
2023-09-03T15:17:32.540Z,99175.84
2023-09-03T15:20:00.831Z,99180.41
2023-09-03T15:22:28.208Z,99180.75
2023-09-03T15:24:55.231Z,99177.97
2023-09-03T15:27:22.181Z,99183.72
2023-09-03T15:29:49.163Z,99185.06
2023-09-03T15:32:16.157Z,99173.66
2023-09-03T15:34:43.677Z,99185.06
2023-09-03T15:37:10.687Z,99183.97
2023-09-03T15:39:38.620Z,99181.84
2023-09-03T15:42:05.758Z,99187.31
2023-09-03T15:44:32.826Z,99187.31
2023-09-03T15:46:59.863Z,99194.63
2023-09-03T15:49:27.015Z,99189.75
2023-09-03T15:51:54.090Z,99191.09
2023-09-03T15:54:25.469Z,99187.81
2023-09-03T15:56:53.792Z,99187.53
2023-09-03T15:59:24.173Z,99192.41
2023-09-03T16:01:54.373Z,99190.47
2023-09-03T16:04:22.101Z,99196.38
2023-09-03T16:06:49.088Z,99201.19
2023-09-03T16:09:16.207Z,99199.22
2023-09-03T16:11:43.285Z,99199.66
2023-09-03T16:14:10.389Z,99193.69
2023-09-03T16:16:37.403Z,99195.84
2023-09-03T16:19:04.455Z,99197.06
2023-09-03T16:21:33.447Z,99194.75
2023-09-03T16:24:00.496Z,99195.44
2023-09-03T16:26:27.500Z,99198.69
2023-09-03T16:28:54.544Z,99197.88
2023-09-03T16:31:21.750Z,99195.72
2023-09-03T16:33:49.209Z,99202.28
2023-09-03T16:36:16.432Z,99200.84
2023-09-03T16:38:43.450Z,99196.78
2023-09-03T16:41:10.504Z,99197.59
2023-09-03T16:43:40.416Z,99201.91
2023-09-03T16:46:10.152Z,99202.78
2023-09-03T16:48:37.171Z,99200.91
2023-09-03T16:51:04.162Z,99195.94
2023-09-03T16:53:31.133Z,99200.81
2023-09-03T16:55:58.241Z,99195.97
2023-09-03T16:58:25.280Z,99201.38
2023-09-03T17:00:52.969Z,99195.97
2023-09-03T17:03:20.875Z,99199.25
2023-09-03T17:05:48.369Z,99201.69
2023-09-03T17:08:15.416Z,99198.94
2023-09-03T17:10:42.445Z,99195.06
2023-09-03T17:13:09.507Z,99198.69
2023-09-03T17:15:43.112Z,99189.97
2023-09-03T17:18:10.704Z,99194.91
2023-09-03T17:20:43.904Z,99195.78
2023-09-03T17:23:12.228Z,99188.88
2023-09-03T17:25:39.321Z,99193.16
2023-09-03T17:28:07.086Z,99195.78
2023-09-03T17:30:34.458Z,99198.53
2023-09-03T17:33:01.496Z,99203.69
2023-09-03T17:35:28.528Z,99201.28
2023-09-03T17:37:55.504Z,99205.91
2023-09-03T17:40:22.567Z,99215.47
2023-09-03T17:42:49.516Z,99209.50
2023-09-03T17:45:16.531Z,99206.84
2023-09-03T17:47:43.987Z,99199.78
2023-09-03T17:50:11.312Z,99210.66
2023-09-03T17:52:38.412Z,99202.53
2023-09-03T17:55:06.114Z,99204.16
2023-09-03T17:57:34.905Z,99208.50
2023-09-03T18:00:03.939Z,99206.31
2023-09-03T18:02:39.999Z,99209.84
2023-09-03T18:05:07.614Z,99211.19
2023-09-03T18:07:34.841Z,99212.81
2023-09-03T18:10:02.084Z,99214.13
2023-09-03T18:12:30.420Z,99224.75
2023-09-03T18:21:18.898Z,99229.53
2023-09-03T18:23:46.539Z,99233.91
2023-09-03T18:26:13.688Z,99231.19
2023-09-03T18:28:45.051Z,99229.38
2023-09-03T18:31:14.346Z,99230.03
2023-09-03T18:33:41.608Z,99225.91
2023-09-03T18:36:08.828Z,99235.91
2023-09-03T18:38:36.088Z,99237.00
2023-09-03T18:41:03.556Z,99238.00
2023-09-03T18:43:30.540Z,99235.81
2023-09-03T18:46:00.902Z,99234.28
2023-09-03T18:54:20.914Z,99240.75
2023-09-03T18:56:48.724Z,99252.16
2023-09-03T18:59:17.699Z,99253.38
2023-09-03T19:01:44.870Z,99253.47
2023-09-03T19:04:14.439Z,99248.03
2023-09-03T19:06:41.452Z,99258.84
2023-09-03T19:09:08.452Z,99260.69
2023-09-03T19:11:35.610Z,99252.75
2023-09-03T19:14:04.093Z,99251.25
2023-09-03T19:16:31.768Z,99255.97
2023-09-03T19:18:59.206Z,99266.94
2023-09-03T19:21:27.168Z,99255.69
2023-09-03T19:23:54.125Z,99263.88
2023-09-03T19:26:21.192Z,99259.59
2023-09-03T19:28:49.851Z,99260.16
2023-09-03T19:31:17.077Z,99263.41
2023-09-03T19:33:44.411Z,99265.78
2023-09-03T19:36:12.390Z,99267.66
2023-09-03T19:38:39.859Z,99262.78
2023-09-03T19:41:07.126Z,99264.03
2023-09-03T19:43:34.806Z,99255.69
2023-09-03T19:46:02.660Z,99251.06
2023-09-03T19:48:35.237Z,99252.19
2023-09-03T19:51:02.992Z,99242.72
2023-09-03T19:53:31.991Z,99240.63
2023-09-03T19:56:06.897Z,99238.81
2023-09-03T19:58:34.601Z,99246.31
2023-09-03T20:01:06.315Z,99239.44
2023-09-03T20:03:34.265Z,99237.78
2023-09-03T20:06:04.586Z,99250.00
2023-09-03T20:08:32.524Z,99246.94
2023-09-03T20:11:04.593Z,99241.72
2023-09-03T20:13:32.751Z,99238.94
2023-09-03T20:16:01.682Z,99252.31
2023-09-03T20:18:29.437Z,99250.19
2023-09-03T20:20:59.169Z,99246.03
2023-09-03T20:23:26.398Z,99248.56
2023-09-03T20:26:06.103Z,99248.91
2023-09-03T20:28:45.780Z,99256.72
2023-09-03T20:31:15.865Z,99256.50
2023-09-03T20:33:43.906Z,99253.88
2023-09-03T20:36:11.385Z,99253.00
2023-09-03T20:38:38.768Z,99243.06
2023-09-03T20:41:05.882Z,99251.06
2023-09-03T20:43:33.257Z,99247.97
2023-09-03T20:46:01.016Z,99248.34
2023-09-03T20:48:29.362Z,99241.13
2023-09-03T20:51:01.189Z,99239.84
2023-09-03T20:53:28.276Z,99238.03
2023-09-03T20:55:56.464Z,99232.13
2023-09-03T20:58:24.748Z,99234.75
2023-09-03T21:00:52.886Z,99239.00
2023-09-03T21:09:39.361Z,99234.53
2023-09-03T21:12:06.803Z,99245.09
2023-09-03T21:14:34.127Z,99243.59
2023-09-03T21:17:01.350Z,99239.06
2023-09-03T21:19:28.508Z,99241.25
2023-09-03T21:21:56.015Z,99236.59
2023-09-03T21:24:23.285Z,99233.59
2023-09-03T21:26:50.478Z,99242.91
2023-09-03T21:29:20.207Z,99237.56
2023-09-03T21:31:47.322Z,99239.94
2023-09-03T21:34:14.653Z,99245.03
2023-09-03T21:36:41.835Z,99246.72
2023-09-03T21:42:18.615Z,99242.19
2023-09-03T21:44:45.711Z,99245.16
2023-09-03T21:47:13.167Z,99249.00
2023-09-03T21:49:41.344Z,99249.75
2023-09-03T21:52:08.413Z,99247.63
2023-09-03T21:54:51.241Z,99246.31
2023-09-03T21:57:23.003Z,99238.72
2023-09-03T21:59:50.044Z,99243.31
2023-09-03T22:02:17.381Z,99246.00
2023-09-03T22:04:44.963Z,99245.59
2023-09-03T22:07:12.062Z,99254.34
2023-09-03T22:12:28.361Z,99255.34
2023-09-03T22:14:55.954Z,99253.16
2023-09-03T22:17:25.549Z,99261.53
2023-09-03T22:19:52.733Z,99251.25
2023-09-03T22:22:22.287Z,99248.78
2023-09-03T22:24:49.576Z,99249.28
2023-09-03T22:27:16.678Z,99242.06
2023-09-03T22:29:44.561Z,99250.09
2023-09-03T22:32:11.667Z,99247.88
2023-09-03T22:34:39.029Z,99241.50
2023-09-03T22:37:06.609Z,99245.91
2023-09-03T22:39:35.152Z,99243.38
2023-09-03T22:42:02.985Z,99249.44
2023-09-03T22:44:30.331Z,99245.03
2023-09-03T22:46:58.051Z,99256.72
2023-09-03T22:49:25.408Z,99251.00
2023-09-03T22:51:52.770Z,99251.16
2023-09-03T22:54:20.471Z,99242.78
2023-09-03T22:56:47.688Z,99255.66
2023-09-03T22:59:14.869Z,99255.94
2023-09-03T23:01:42.166Z,99265.66
2023-09-03T23:04:09.642Z,99265.81
2023-09-03T23:06:36.714Z,99260.91
2023-09-03T23:09:03.821Z,99257.84
2023-09-03T23:11:31.798Z,99256.19
2023-09-03T23:13:58.789Z,99254.84
2023-09-03T23:16:25.825Z,99249.47
2023-09-03T23:18:52.865Z,99262.91
2023-09-03T23:21:20.158Z,99259.91
2023-09-03T23:23:47.173Z,99254.75
2023-09-03T23:26:16.870Z,99254.75
2023-09-03T23:28:43.903Z,99251.72
2023-09-03T23:31:11.015Z,99256.19
2023-09-03T23:33:38.102Z,99263.31
2023-09-03T23:36:05.406Z,99260.53
2023-09-03T23:38:33.833Z,99262.72
2023-09-03T23:41:00.895Z,99260.09
2023-09-03T23:43:27.852Z,99270.63
2023-09-03T23:45:54.831Z,99267.84
2023-09-03T23:48:22.225Z,99275.81
2023-09-03T23:50:49.538Z,99269.94
2023-09-03T23:53:16.501Z,99263.22
2023-09-03T23:55:43.527Z,99264.09
2023-09-03T23:58:10.642Z,99266.19
